createdAt,value
2019-06-20T00:02:36.230Z,23.20
2019-06-20T00:05:25.948Z,23.20
2019-06-20T00:08:14.322Z,23.20
2019-06-20T00:11:02.977Z,23.20
2019-06-20T00:13:51.686Z,23.20
2019-06-20T00:16:40.343Z,23.20
2019-06-20T00:19:28.631Z,23.20
2019-06-20T00:22:17.209Z,23.20
2019-06-20T00:25:07.206Z,23.10
2019-06-20T00:27:55.442Z,23.20
2019-06-20T00:30:43.731Z,23.10
2019-06-20T00:33:32.173Z,23.10
2019-06-20T00:36:02.882Z,23.10
2019-06-20T00:38:34.369Z,23.10
2019-06-20T00:41:05.098Z,23.10
2019-06-20T00:43:35.766Z,23.10
2019-06-20T00:46:24.035Z,23.10
2019-06-20T00:49:12.406Z,23.10
2019-06-20T00:52:00.859Z,23.10
2019-06-20T00:54:49.413Z,23.00
2019-06-20T00:57:38.126Z,23.00
2019-06-20T01:00:27.326Z,23.10
2019-06-20T01:03:15.572Z,23.00
2019-06-20T01:06:04.161Z,23.00
2019-06-20T01:08:52.763Z,23.00
2019-06-20T01:11:41.345Z,23.00
2019-06-20T01:14:29.980Z,23.00
2019-06-20T01:17:18.539Z,23.00
2019-06-20T01:20:08.624Z,23.00
2019-06-20T01:22:57.222Z,23.00
2019-06-20T01:25:46.948Z,23.00
2019-06-20T01:28:35.250Z,23.00
2019-06-20T01:31:23.675Z,22.90
2019-06-20T01:34:12.364Z,22.90
2019-06-20T01:37:01.104Z,22.90
2019-06-20T01:39:49.806Z,22.90
2019-06-20T01:42:38.245Z,23.00
2019-06-20T01:45:26.945Z,22.90
2019-06-20T01:48:15.379Z,22.90
2019-06-20T01:51:03.854Z,22.90
2019-06-20T01:53:52.486Z,22.90
2019-06-20T01:56:41.208Z,22.90
2019-06-20T01:59:29.882Z,22.90
2019-06-20T02:02:18.364Z,22.90
2019-06-20T02:05:07.961Z,22.90
2019-06-20T02:07:56.665Z,22.90
2019-06-20T02:10:47.150Z,22.90
2019-06-20T02:13:35.540Z,22.80
2019-06-20T02:16:24.064Z,22.80
2019-06-20T02:19:12.716Z,22.80
2019-06-20T02:22:01.230Z,22.80
2019-06-20T02:24:49.826Z,22.80
2019-06-20T02:27:38.935Z,22.80
2019-06-20T02:30:28.286Z,22.80
2019-06-20T02:33:16.970Z,22.80
2019-06-20T02:36:05.443Z,22.80
2019-06-20T02:38:53.560Z,22.80
2019-06-20T02:41:42.208Z,22.80
2019-06-20T02:44:31.191Z,22.80
2019-06-20T02:47:20.461Z,22.80
2019-06-20T02:50:11.269Z,22.70
2019-06-20T02:53:00.205Z,22.70
2019-06-20T02:55:48.637Z,22.70
2019-06-20T02:58:36.698Z,22.70
2019-06-20T03:01:26.997Z,22.70
2019-06-20T03:04:15.300Z,22.70
2019-06-20T03:07:03.808Z,22.70
2019-06-20T03:09:52.216Z,22.70
2019-06-20T03:12:41.444Z,22.70
2019-06-20T03:15:29.657Z,22.70
2019-06-20T03:18:18.137Z,22.70
2019-06-20T03:21:06.611Z,22.70
2019-06-20T03:23:54.860Z,22.70
2019-06-20T03:26:43.012Z,22.60
2019-06-20T03:29:31.091Z,22.70
2019-06-20T03:32:19.462Z,22.60
2019-06-20T03:35:08.142Z,22.60
2019-06-20T03:37:56.388Z,22.60
2019-06-20T03:40:44.746Z,22.60
2019-06-20T03:43:33.212Z,22.60
2019-06-20T03:46:21.401Z,22.60
2019-06-20T03:49:09.783Z,22.60
2019-06-20T03:51:58.540Z,22.60
2019-06-20T03:54:46.924Z,22.60
2019-06-20T03:57:36.148Z,22.60
2019-06-20T04:00:27.621Z,22.60
2019-06-20T04:03:17.266Z,22.50
2019-06-20T04:06:05.762Z,22.50
2019-06-20T04:08:55.239Z,22.50
2019-06-20T04:11:43.898Z,22.50
2019-06-20T04:14:32.523Z,22.50
2019-06-20T04:17:21.265Z,22.50
2019-06-20T04:20:09.638Z,22.50
2019-06-20T04:22:58.150Z,22.50
2019-06-20T04:25:46.746Z,22.50
2019-06-20T04:28:34.967Z,22.50
2019-06-20T04:31:23.538Z,22.50
2019-06-20T04:34:12.260Z,22.40
2019-06-20T04:37:00.510Z,22.40
2019-06-20T04:39:50.249Z,22.40
2019-06-20T04:42:39.055Z,22.40
2019-06-20T04:45:35.179Z,22.40
2019-06-20T04:48:18.537Z,22.40
2019-06-20T04:51:07.125Z,22.40
2019-06-20T04:53:55.569Z,22.40
2019-06-20T04:56:43.819Z,22.40
2019-06-20T04:59:31.980Z,22.40
2019-06-20T05:02:21.808Z,22.40
2019-06-20T05:05:10.745Z,22.40
2019-06-20T05:07:59.230Z,22.40
2019-06-20T05:10:47.800Z,22.40
2019-06-20T05:13:35.836Z,22.40
2019-06-20T05:16:24.295Z,22.40
2019-06-20T05:19:12.537Z,22.40
2019-06-20T05:22:01.018Z,22.40
2019-06-20T05:24:49.564Z,22.40
2019-06-20T05:27:37.752Z,22.40
2019-06-20T05:30:25.977Z,22.40
2019-06-20T05:33:14.987Z,22.40
2019-06-20T05:36:03.490Z,22.40
2019-06-20T05:38:51.835Z,22.40
2019-06-20T05:41:40.226Z,22.30
2019-06-20T05:44:28.745Z,22.40
2019-06-20T05:47:17.312Z,22.40
2019-06-20T05:50:08.752Z,22.30
2019-06-20T05:52:58.222Z,22.30
2019-06-20T05:55:46.199Z,22.30
2019-06-20T05:58:34.261Z,22.40
2019-06-20T06:01:22.770Z,22.30
2019-06-20T06:04:11.056Z,22.40
2019-06-20T06:06:59.749Z,22.40
2019-06-20T06:09:48.001Z,22.40
2019-06-20T06:12:36.430Z,22.40
2019-06-20T06:15:43.973Z,22.40
2019-06-20T06:18:33.641Z,22.40
2019-06-20T06:21:22.979Z,22.40
2019-06-20T06:24:11.403Z,22.40
2019-06-20T06:27:00.139Z,22.40
2019-06-20T06:29:49.219Z,22.40
2019-06-20T06:32:40.406Z,22.40
2019-06-20T06:35:28.497Z,22.40
2019-06-20T06:38:21.796Z,22.40
2019-06-20T06:41:07.691Z,22.40
2019-06-20T06:43:56.096Z,22.40
2019-06-20T06:46:53.187Z,22.40
2019-06-20T06:49:34.353Z,22.40
2019-06-20T06:52:22.967Z,22.40
2019-06-20T06:55:12.831Z,22.40
2019-06-20T06:58:01.058Z,22.40
2019-06-20T07:00:49.905Z,22.40
2019-06-20T07:03:38.941Z,22.40
2019-06-20T07:06:27.608Z,22.50
2019-06-20T07:09:15.840Z,22.60
2019-06-20T07:12:04.558Z,22.70
2019-06-20T07:14:53.684Z,22.80
2019-06-20T07:17:42.459Z,22.90
2019-06-20T07:20:30.995Z,22.90
2019-06-20T07:23:19.056Z,22.90
2019-06-20T07:26:07.822Z,22.90
2019-06-20T07:28:56.254Z,22.90
2019-06-20T07:31:44.495Z,22.90
2019-06-20T07:34:33.247Z,22.80
2019-06-20T07:37:22.003Z,22.80
2019-06-20T07:40:13.291Z,22.80
2019-06-20T07:43:01.612Z,22.80
2019-06-20T07:46:01.964Z,22.80
2019-06-20T07:48:40.301Z,22.80
2019-06-20T07:51:28.749Z,22.80
2019-06-20T07:54:17.364Z,22.80
2019-06-20T07:57:05.957Z,22.80
2019-06-20T07:59:54.164Z,22.80
2019-06-20T08:02:42.832Z,22.80
2019-06-20T08:05:31.880Z,22.80
2019-06-20T08:08:20.584Z,22.70
2019-06-20T08:11:09.521Z,22.70
2019-06-20T08:13:58.312Z,22.70
2019-06-20T08:16:46.733Z,22.80
2019-06-20T08:19:35.825Z,22.90
2019-06-20T08:22:24.192Z,23.00
2019-06-20T08:25:13.823Z,23.00
2019-06-20T08:28:02.417Z,23.00
2019-06-20T08:30:52.196Z,22.90
2019-06-20T08:33:41.312Z,23.00
2019-06-20T08:36:30.050Z,23.10
2019-06-20T08:39:18.357Z,23.10
2019-06-20T08:42:06.872Z,23.10
2019-06-20T08:44:56.252Z,23.10
2019-06-20T08:47:45.205Z,23.00
2019-06-20T08:50:33.977Z,23.00
2019-06-20T08:53:22.244Z,23.10
2019-06-20T08:56:10.819Z,22.90
2019-06-20T08:59:00.573Z,22.70
2019-06-20T09:01:49.463Z,22.60
2019-06-20T09:04:38.294Z,22.50
2019-06-20T09:07:27.203Z,22.50
2019-06-20T09:10:16.663Z,22.40
2019-06-20T09:13:05.155Z,22.30
2019-06-20T09:15:54.556Z,22.10
2019-06-20T09:18:43.392Z,21.90
2019-06-20T09:21:31.880Z,22.00
2019-06-20T09:24:20.253Z,22.00
2019-06-20T09:27:09.235Z,22.00
2019-06-20T09:29:58.515Z,22.10
2019-06-20T09:32:47.607Z,21.90
2019-06-20T09:35:36.503Z,21.70
2019-06-20T09:38:25.166Z,21.70
2019-06-20T09:41:13.803Z,21.90
2019-06-20T09:44:03.162Z,21.90
2019-06-20T09:46:52.400Z,22.00
2019-06-20T09:49:43.060Z,22.10
2019-06-20T09:52:31.995Z,22.20
2019-06-20T09:55:20.221Z,22.30
2019-06-20T09:58:08.603Z,22.30
2019-06-20T10:00:57.611Z,22.30
2019-06-20T10:03:47.769Z,22.40
2019-06-20T10:06:36.764Z,22.40
2019-06-20T10:09:25.175Z,22.40
2019-06-20T10:12:13.586Z,22.30
2019-06-20T10:15:02.253Z,22.30
2019-06-20T10:17:51.390Z,22.30
2019-06-20T10:20:40.053Z,22.30
2019-06-20T10:23:28.882Z,22.30
2019-06-20T10:26:17.510Z,22.30
2019-06-20T10:29:06.267Z,22.30
2019-06-20T10:31:54.973Z,22.30
2019-06-20T10:34:46.452Z,22.30
2019-06-20T10:37:34.599Z,22.20
2019-06-20T10:40:24.850Z,22.20
2019-06-20T10:43:13.085Z,22.10
2019-06-20T10:46:01.821Z,22.00
2019-06-20T10:48:50.512Z,22.00
2019-06-20T10:51:42.342Z,22.00
2019-06-20T10:54:31.190Z,22.00
2019-06-20T10:57:21.333Z,22.10
2019-06-20T11:00:12.635Z,22.00
2019-06-20T11:03:02.997Z,22.00
2019-06-20T11:05:51.048Z,22.10
2019-06-20T11:08:40.611Z,22.10
2019-06-20T11:11:29.638Z,22.10
2019-06-20T11:14:18.517Z,22.10
2019-06-20T11:17:07.162Z,22.10
2019-06-20T11:19:55.539Z,22.10
2019-06-20T11:22:45.684Z,22.10
2019-06-20T11:25:34.228Z,22.10
2019-06-20T11:28:22.820Z,22.00
2019-06-20T11:31:11.572Z,21.90
2019-06-20T11:34:00.127Z,21.90
2019-06-20T11:36:48.453Z,21.90
2019-06-20T11:39:37.463Z,22.00
2019-06-20T11:42:29.735Z,22.10
2019-06-20T11:45:19.382Z,22.20
2019-06-20T11:48:07.922Z,22.20
2019-06-20T11:50:56.278Z,22.30
2019-06-20T11:53:44.894Z,22.30
2019-06-20T11:56:33.670Z,22.30
2019-06-20T11:59:22.374Z,22.30
2019-06-20T12:02:11.224Z,22.40
2019-06-20T12:05:00.089Z,22.40
2019-06-20T12:07:49.948Z,22.40
2019-06-20T12:10:39.278Z,22.50
2019-06-20T12:13:27.703Z,22.50
2019-06-20T12:16:16.593Z,22.50
2019-06-20T12:19:05.159Z,22.50
2019-06-20T12:21:53.869Z,22.40
2019-06-20T12:24:42.999Z,22.40
2019-06-20T12:27:31.826Z,22.40
2019-06-20T12:30:21.826Z,22.40
2019-06-20T12:33:10.145Z,22.40
2019-06-20T12:35:58.525Z,22.50
2019-06-20T12:38:48.358Z,22.50
2019-06-20T12:41:37.207Z,22.50
2019-06-20T12:44:25.620Z,22.50
2019-06-20T12:47:14.318Z,22.50
2019-06-20T12:50:02.625Z,22.50
2019-06-20T12:52:50.799Z,22.50
2019-06-20T12:55:40.425Z,22.50
2019-06-20T12:58:28.647Z,22.50
2019-06-20T13:01:16.633Z,22.50
2019-06-20T13:04:06.104Z,22.50
2019-06-20T13:06:54.694Z,22.50
2019-06-20T13:09:44.020Z,22.50
2019-06-20T13:12:32.647Z,22.60
2019-06-20T13:15:21.940Z,22.60
2019-06-20T13:18:10.272Z,22.60
2019-06-20T13:20:58.762Z,22.60
2019-06-20T13:23:47.769Z,22.60
2019-06-20T13:26:35.882Z,22.60
2019-06-20T13:29:24.153Z,22.70
2019-06-20T13:32:12.364Z,22.70
2019-06-20T13:35:00.683Z,22.70
2019-06-20T13:37:50.097Z,22.80
2019-06-20T13:40:40.214Z,22.80
2019-06-20T13:43:30.034Z,22.90
2019-06-20T13:46:18.475Z,22.90
2019-06-20T13:49:06.931Z,22.90
2019-06-20T13:51:56.063Z,23.00
2019-06-20T13:54:46.310Z,23.00
2019-06-20T13:57:35.812Z,23.00
2019-06-20T14:00:26.240Z,23.00
2019-06-20T14:03:14.652Z,23.00
2019-06-20T14:06:03.075Z,23.00
2019-06-20T14:08:51.379Z,23.00
2019-06-20T14:11:41.793Z,23.00
2019-06-20T14:14:30.639Z,23.00
2019-06-20T14:17:19.706Z,23.10
2019-06-20T14:20:09.131Z,23.00
2019-06-20T14:22:58.103Z,23.10
2019-06-20T14:25:46.621Z,23.00
2019-06-20T14:28:35.161Z,23.00
2019-06-20T14:31:23.519Z,23.00
2019-06-20T14:34:11.736Z,23.00
2019-06-20T14:36:59.749Z,23.10
2019-06-20T14:39:48.155Z,23.10
2019-06-20T14:42:37.579Z,23.00
2019-06-20T14:45:25.932Z,22.90
2019-06-20T14:48:14.132Z,22.90
2019-06-20T14:51:03.335Z,22.90
2019-06-20T14:53:52.708Z,22.90
2019-06-20T14:56:41.509Z,22.90
2019-06-20T14:59:30.572Z,22.80
2019-06-20T15:02:18.785Z,22.80
2019-06-20T15:05:15.857Z,22.80
2019-06-20T15:08:04.476Z,22.80
2019-06-20T15:10:54.018Z,22.80
2019-06-20T15:13:42.747Z,22.70
2019-06-20T15:16:31.243Z,22.70
2019-06-20T15:19:19.722Z,22.70
2019-06-20T15:22:08.055Z,22.70
2019-06-20T15:24:57.205Z,22.70
2019-06-20T15:27:47.541Z,22.60
2019-06-20T15:30:35.802Z,22.60
2019-06-20T15:33:24.225Z,22.60
2019-06-20T15:36:12.645Z,22.60
2019-06-20T15:39:01.873Z,22.50
2019-06-20T15:41:50.023Z,22.50
2019-06-20T15:44:38.543Z,22.50
2019-06-20T15:47:27.088Z,22.50
2019-06-20T15:50:15.808Z,22.50
2019-06-20T15:53:03.900Z,22.40
2019-06-20T15:55:52.320Z,22.40
2019-06-20T15:58:40.558Z,22.40
2019-06-20T16:01:29.516Z,22.30
2019-06-20T16:04:17.858Z,22.40
2019-06-20T16:07:06.619Z,22.30
2019-06-20T16:09:54.997Z,22.40
2019-06-20T16:12:43.418Z,22.30
2019-06-20T16:15:31.686Z,22.30
2019-06-20T16:18:20.382Z,22.40
2019-06-20T16:21:08.572Z,22.50
2019-06-20T16:23:56.743Z,22.50
2019-06-20T16:26:45.939Z,22.60
2019-06-20T16:29:34.341Z,22.60
2019-06-20T16:32:22.650Z,22.60
2019-06-20T16:35:11.308Z,22.60
2019-06-20T16:38:00.286Z,22.60
2019-06-20T16:40:49.813Z,22.70
2019-06-20T16:43:38.293Z,22.70
2019-06-20T16:46:26.672Z,22.70
2019-06-20T16:49:15.126Z,22.70
2019-06-20T16:52:03.798Z,22.80
2019-06-20T16:54:52.395Z,22.80
2019-06-20T16:57:40.511Z,22.80
2019-06-20T17:00:29.914Z,22.80
2019-06-20T17:03:18.454Z,22.80
2019-06-20T17:06:07.076Z,22.80
2019-06-20T17:08:55.415Z,22.80
2019-06-20T17:11:44.174Z,22.80
2019-06-20T17:14:32.495Z,22.80
2019-06-20T17:17:21.046Z,22.80
2019-06-20T17:20:12.014Z,22.80
2019-06-20T17:23:00.607Z,22.80
2019-06-20T17:25:49.088Z,22.80
2019-06-20T17:28:37.616Z,22.90
2019-06-20T17:31:26.067Z,22.80
2019-06-20T17:34:14.485Z,22.80
2019-06-20T17:37:02.985Z,22.90
2019-06-20T17:39:51.167Z,22.90
2019-06-20T17:42:39.297Z,22.90
2019-06-20T17:45:29.238Z,22.90
2019-06-20T17:48:17.579Z,22.90
2019-06-20T17:51:06.191Z,22.90
2019-06-20T17:53:54.974Z,22.90
2019-06-20T17:56:43.313Z,22.90
2019-06-20T17:59:32.482Z,22.90
2019-06-20T18:02:21.090Z,22.90
2019-06-20T18:05:11.352Z,22.90
2019-06-20T18:08:14.189Z,22.90
2019-06-20T18:10:50.449Z,22.90
2019-06-20T18:13:38.521Z,22.90
2019-06-20T18:16:27.483Z,22.90
2019-06-20T18:19:16.992Z,22.90
2019-06-20T18:22:05.793Z,22.90
2019-06-20T18:24:54.565Z,22.90
2019-06-20T18:27:44.542Z,22.90
2019-06-20T18:30:41.635Z,22.90
2019-06-20T18:33:29.680Z,22.90
2019-06-20T18:36:17.917Z,22.90
2019-06-20T18:39:09.154Z,22.90
2019-06-20T18:41:58.168Z,22.80
2019-06-20T18:44:46.522Z,22.80
2019-06-20T18:47:35.045Z,22.80
2019-06-20T18:50:23.372Z,22.90
2019-06-20T18:53:11.440Z,22.90
2019-06-20T18:56:00.760Z,22.80
2019-06-20T18:58:49.697Z,22.80
2019-06-20T19:01:38.249Z,22.80
2019-06-20T19:04:26.811Z,22.80
2019-06-20T19:07:15.204Z,22.80
2019-06-20T19:10:09.113Z,22.80
2019-06-20T19:12:57.474Z,22.80
2019-06-20T19:15:46.932Z,22.80
2019-06-20T19:18:35.414Z,22.80
2019-06-20T19:21:23.668Z,22.80
2019-06-20T19:24:12.448Z,22.80
2019-06-20T19:27:00.733Z,22.80
2019-06-20T19:29:40.851Z,22.70
2019-06-20T19:32:29.649Z,22.80
2019-06-20T19:35:18.949Z,22.80
2019-06-20T19:38:07.282Z,22.80
2019-06-20T19:40:55.868Z,22.70
2019-06-20T19:43:44.497Z,22.70
2019-06-20T19:46:33.085Z,22.70
2019-06-20T19:49:21.751Z,22.70
2019-06-20T19:52:10.227Z,22.70
2019-06-20T19:54:59.475Z,22.70
2019-06-20T19:57:48.412Z,22.70
2019-06-20T20:00:36.820Z,22.70
2019-06-20T20:03:25.973Z,22.70
2019-06-20T20:06:14.553Z,22.70
2019-06-20T20:09:03.127Z,22.70
2019-06-20T20:11:52.261Z,22.70
2019-06-20T20:14:40.466Z,22.70
2019-06-20T20:17:28.939Z,22.60
2019-06-20T20:20:18.480Z,22.70
2019-06-20T20:23:07.420Z,22.60
2019-06-20T20:25:55.654Z,22.60
2019-06-20T20:28:44.048Z,22.60
2019-06-20T20:31:32.340Z,22.60
2019-06-20T20:34:20.765Z,22.60
2019-06-20T20:37:08.847Z,22.60
2019-06-20T20:39:57.336Z,22.60
2019-06-20T20:42:45.983Z,22.60
2019-06-20T20:45:34.195Z,22.60
2019-06-20T20:48:22.466Z,22.60
2019-06-20T20:51:11.393Z,22.50
2019-06-20T20:54:00.814Z,22.60
2019-06-20T20:56:48.955Z,22.60
2019-06-20T20:59:37.210Z,22.50
2019-06-20T21:02:25.831Z,22.50
2019-06-20T21:05:14.502Z,22.50
2019-06-20T21:08:03.073Z,22.50
2019-06-20T21:10:51.685Z,22.50
2019-06-20T21:13:39.861Z,22.50
2019-06-20T21:16:28.799Z,22.50
2019-06-20T21:19:17.093Z,22.50
2019-06-20T21:22:05.647Z,22.50
2019-06-20T21:24:54.874Z,22.50
2019-06-20T21:27:43.391Z,22.50
2019-06-20T21:30:31.555Z,22.40
2019-06-20T21:33:20.449Z,22.40
2019-06-20T21:36:09.804Z,22.40
2019-06-20T21:38:58.169Z,22.40
2019-06-20T21:41:46.704Z,22.40
2019-06-20T21:44:34.896Z,22.40
2019-06-20T21:47:23.386Z,22.40
2019-06-20T21:50:14.339Z,22.40
2019-06-20T21:53:02.746Z,22.40
2019-06-20T21:55:50.989Z,22.40
2019-06-20T21:58:39.107Z,22.40
2019-06-20T22:01:28.351Z,22.40
2019-06-20T22:04:16.713Z,22.40
2019-06-20T22:07:05.559Z,22.30
2019-06-20T22:09:54.144Z,22.30
2019-06-20T22:12:42.859Z,22.30
2019-06-20T22:15:31.443Z,22.30
2019-06-20T22:18:20.361Z,22.30
2019-06-20T22:21:09.132Z,22.30
2019-06-20T22:23:58.160Z,22.30
2019-06-20T22:26:46.816Z,22.30
2019-06-20T22:29:35.112Z,22.30
2019-06-20T22:32:23.537Z,22.30
2019-06-20T22:35:13.592Z,22.30
2019-06-20T22:38:01.834Z,22.30
2019-06-20T22:40:50.023Z,22.30
2019-06-20T22:43:38.443Z,22.20
2019-06-20T22:46:27.143Z,22.20
2019-06-20T22:49:15.469Z,22.20
2019-06-20T22:52:03.977Z,22.20
2019-06-20T22:54:52.760Z,22.20
2019-06-20T22:57:41.203Z,22.20
2019-06-20T23:00:29.486Z,22.20
2019-06-20T23:03:18.051Z,22.20
2019-06-20T23:06:06.538Z,22.20
2019-06-20T23:08:54.861Z,22.20
2019-06-20T23:11:43.512Z,22.20
2019-06-20T23:14:32.347Z,22.10
2019-06-20T23:17:20.712Z,22.20
2019-06-20T23:20:11.279Z,22.10
2019-06-20T23:22:59.596Z,22.10
2019-06-20T23:25:49.385Z,22.10
2019-06-20T23:28:37.738Z,22.10
2019-06-20T23:31:25.998Z,22.10
2019-06-20T23:34:14.502Z,22.10
2019-06-20T23:37:12.148Z,22.10
2019-06-20T23:39:52.610Z,22.10
2019-06-20T23:42:41.804Z,22.10
2019-06-20T23:45:32.103Z,22.10
2019-06-20T23:48:20.648Z,22.00
2019-06-20T23:51:24.529Z,22.00
2019-06-20T23:53:41.456Z,22.00
2019-06-20T23:56:12.120Z,22.00
2019-06-20T23:58:44.413Z,22.00
